createdAt,value
2023-05-19T00:02:41.798Z,9.30
2023-05-19T00:07:49.451Z,9.30
2023-05-19T00:12:55.181Z,9.20
2023-05-19T00:18:00.495Z,9.20
2023-05-19T00:23:06.006Z,9.20
2023-05-19T00:28:11.192Z,9.20
2023-05-19T00:33:16.391Z,9.10
2023-05-19T00:38:21.672Z,9.10
2023-05-19T00:43:27.838Z,9.10
2023-05-19T00:48:33.689Z,9.00
2023-05-19T00:53:39.536Z,9.00
2023-05-19T00:58:46.212Z,9.10
2023-05-19T01:03:51.704Z,8.90
2023-05-19T01:08:57.657Z,8.90
2023-05-19T01:14:02.911Z,8.90
2023-05-19T01:19:33.852Z,9.00
2023-05-19T01:24:47.936Z,8.90
2023-05-19T01:30:24.974Z,9.00
2023-05-19T01:35:33.131Z,9.00
2023-05-19T01:40:40.152Z,9.00
2023-05-19T01:45:46.476Z,9.10
2023-05-19T01:50:53.136Z,9.10
2023-05-19T01:55:59.168Z,9.10
2023-05-19T02:01:07.537Z,9.10
2023-05-19T02:06:50.595Z,9.00
2023-05-19T02:12:27.520Z,8.80
2023-05-19T02:17:36.522Z,8.70
2023-05-19T02:22:41.999Z,8.60
2023-05-19T02:27:48.955Z,8.60
2023-05-19T02:32:54.579Z,8.50
2023-05-19T02:37:59.924Z,8.40
2023-05-19T02:43:05.255Z,8.40
2023-05-19T02:48:19.152Z,8.40
2023-05-19T02:53:24.418Z,8.40
2023-05-19T02:58:32.075Z,8.40
2023-05-19T03:03:37.532Z,8.40
2023-05-19T03:08:43.219Z,8.40
2023-05-19T03:13:48.629Z,8.40
2023-05-19T03:18:53.816Z,8.50
2023-05-19T03:23:59.120Z,8.60
2023-05-19T03:29:04.388Z,8.60
2023-05-19T03:34:09.499Z,8.70
2023-05-19T03:39:15.258Z,8.80
2023-05-19T03:44:21.986Z,8.90
2023-05-19T03:49:28.248Z,8.90
2023-05-19T03:54:33.772Z,9.00
2023-05-19T03:59:40.610Z,9.10
2023-05-19T04:04:45.768Z,9.20
2023-05-19T04:09:51.981Z,9.40
2023-05-19T04:14:57.238Z,9.40
2023-05-19T04:20:02.855Z,9.50
2023-05-19T04:25:09.067Z,9.60
2023-05-19T04:30:18.353Z,9.70
2023-05-19T04:35:23.116Z,9.80
2023-05-19T04:40:30.644Z,9.80
2023-05-19T04:45:37.810Z,9.90
2023-05-19T04:50:43.752Z,9.90
2023-05-19T04:55:49.525Z,9.90
2023-05-19T05:00:57.408Z,9.90
2023-05-19T05:06:02.704Z,10.10
2023-05-19T05:11:08.324Z,10.20
2023-05-19T05:16:15.160Z,10.20
2023-05-19T05:21:30.089Z,10.30
2023-05-19T05:26:37.881Z,10.50
2023-05-19T05:31:45.636Z,10.50
2023-05-19T05:36:55.630Z,10.70
2023-05-19T05:42:01.453Z,11.00
2023-05-19T05:47:10.021Z,11.20
2023-05-19T05:52:18.566Z,11.50
2023-05-19T05:57:24.357Z,11.60
2023-05-19T06:02:30.283Z,11.70
2023-05-19T06:07:41.943Z,11.80
2023-05-19T06:12:51.226Z,11.90
2023-05-19T06:17:58.138Z,12.10
2023-05-19T06:23:05.007Z,12.30
2023-05-19T06:28:10.354Z,12.50
2023-05-19T06:33:17.649Z,12.70
2023-05-19T06:38:22.830Z,12.80
2023-05-19T06:43:28.873Z,12.80
2023-05-19T06:48:34.139Z,12.90
2023-05-19T06:53:40.560Z,13.00
2023-05-19T06:58:46.586Z,12.90
2023-05-19T07:03:51.801Z,12.90
2023-05-19T07:09:01.093Z,12.90
2023-05-19T07:14:10.498Z,12.90
2023-05-19T07:19:15.976Z,12.90
2023-05-19T07:24:23.605Z,13.00
2023-05-19T07:29:32.100Z,13.00
2023-05-19T07:34:37.986Z,13.20
2023-05-19T07:39:45.046Z,13.30
2023-05-19T07:44:53.635Z,13.30
2023-05-19T07:49:58.935Z,13.50
2023-05-19T07:55:05.540Z,13.40
2023-05-19T08:00:12.429Z,13.50
2023-05-19T08:05:17.765Z,13.60
2023-05-19T08:10:23.405Z,13.50
2023-05-19T08:15:31.056Z,13.60
2023-05-19T08:20:38.047Z,13.70
2023-05-19T08:25:43.329Z,13.60
2023-05-19T08:30:55.940Z,13.70
2023-05-19T08:36:01.284Z,13.80
2023-05-19T08:41:06.639Z,13.90
2023-05-19T08:46:18.792Z,14.00
2023-05-19T08:51:33.630Z,14.20
2023-05-19T08:56:41.726Z,14.40
2023-05-19T09:01:53.653Z,14.70
2023-05-19T09:07:04.270Z,14.80
2023-05-19T09:12:14.570Z,14.80
2023-05-19T09:17:24.604Z,14.90
2023-05-19T09:22:31.951Z,15.30
2023-05-19T09:27:38.976Z,15.40
2023-05-19T09:32:45.045Z,15.70
2023-05-19T09:37:50.400Z,16.00
2023-05-19T09:42:55.817Z,16.00
2023-05-19T09:48:04.829Z,16.10
2023-05-19T09:53:10.878Z,16.00
2023-05-19T09:58:19.372Z,16.30
2023-05-19T10:03:25.088Z,16.30
2023-05-19T10:08:34.655Z,16.40
2023-05-19T10:19:46.713Z,16.00
2023-05-19T10:24:52.341Z,15.70
2023-05-19T10:30:17.925Z,15.60
2023-05-19T10:35:41.617Z,15.50
2023-05-19T10:41:04.850Z,15.10
2023-05-19T10:46:25.360Z,15.10
2023-05-19T10:51:34.526Z,15.10
2023-05-19T10:56:43.114Z,14.80
2023-05-19T11:01:52.073Z,14.80
2023-05-19T11:06:58.173Z,14.90
2023-05-19T11:12:04.889Z,14.80
2023-05-19T11:17:13.166Z,14.40
2023-05-19T11:22:18.434Z,14.60
2023-05-19T11:27:30.862Z,14.60
2023-05-19T11:32:38.829Z,14.40
2023-05-19T11:37:44.272Z,14.30
2023-05-19T11:42:49.397Z,14.00
2023-05-19T11:48:02.623Z,14.00
2023-05-19T11:53:06.264Z,13.80
2023-05-19T11:58:11.609Z,13.80
2023-05-19T12:03:20.222Z,13.80
2023-05-19T12:08:27.376Z,14.00
2023-05-19T12:13:32.653Z,14.00
2023-05-19T12:18:42.146Z,14.00
2023-05-19T12:23:47.832Z,13.90
2023-05-19T12:28:53.964Z,13.90
2023-05-19T12:33:59.368Z,13.70
2023-05-19T12:39:06.628Z,13.30
2023-05-19T12:44:16.896Z,13.20
2023-05-19T12:49:22.194Z,13.00
2023-05-19T12:54:27.586Z,13.00
2023-05-19T12:59:38.755Z,13.20
2023-05-19T13:04:43.216Z,13.30
2023-05-19T13:09:49.283Z,13.40
2023-05-19T13:14:55.766Z,13.50
2023-05-19T13:20:01.435Z,13.50
2023-05-19T13:25:14.146Z,13.40
2023-05-19T13:30:24.358Z,13.40
2023-05-19T13:35:33.444Z,13.60
2023-05-19T13:40:42.997Z,13.70
2023-05-19T13:45:50.154Z,13.80
2023-05-19T13:50:56.156Z,13.90
2023-05-19T13:56:02.147Z,13.90
2023-05-19T14:01:07.715Z,13.90
2023-05-19T14:06:13.012Z,13.90
2023-05-19T14:11:23.347Z,13.90
2023-05-19T14:16:29.065Z,13.80
2023-05-19T14:21:37.228Z,13.80
2023-05-19T14:26:42.545Z,13.70
2023-05-19T14:31:48.401Z,13.90
2023-05-19T14:36:56.015Z,14.10
2023-05-19T14:42:01.061Z,14.10
2023-05-19T14:47:07.850Z,14.10
2023-05-19T14:52:14.096Z,14.20
2023-05-19T14:57:19.501Z,14.20
2023-05-19T15:02:25.595Z,14.30
2023-05-19T15:07:34.070Z,14.10
2023-05-19T15:12:39.412Z,14.00
2023-05-19T15:17:46.982Z,13.90
2023-05-19T15:22:53.238Z,13.90
2023-05-19T15:27:58.486Z,13.90
2023-05-19T15:33:03.786Z,13.80
2023-05-19T15:38:09.211Z,13.80
2023-05-19T15:43:14.937Z,13.70
2023-05-19T15:48:20.197Z,13.70
2023-05-19T15:53:26.194Z,13.70
2023-05-19T15:58:31.485Z,13.70
2023-05-19T16:03:37.114Z,13.70
2023-05-19T16:08:42.327Z,13.60
2023-05-19T16:13:48.034Z,13.60
2023-05-19T16:18:53.283Z,13.60
2023-05-19T16:23:58.833Z,13.60
2023-05-19T16:29:04.325Z,13.60
2023-05-19T16:34:09.653Z,13.60
2023-05-19T16:39:16.587Z,13.60
2023-05-19T16:44:22.056Z,13.60
2023-05-19T16:49:30.723Z,13.50
2023-05-19T16:54:37.731Z,13.50
2023-05-19T16:59:43.565Z,13.50
2023-05-19T17:04:49.353Z,13.50
2023-05-19T17:09:55.989Z,13.50
2023-05-19T17:15:03.076Z,13.50
2023-05-19T17:20:12.440Z,13.50
2023-05-19T17:25:17.751Z,13.50
2023-05-19T17:30:23.142Z,13.40
2023-05-19T17:35:28.754Z,13.30
2023-05-19T17:40:36.961Z,13.30
2023-05-19T17:45:43.183Z,13.20
2023-05-19T17:50:49.140Z,13.20
2023-05-19T17:55:56.993Z,13.10
2023-05-19T18:01:02.352Z,13.00
2023-05-19T18:06:09.546Z,13.00
2023-05-19T18:11:19.502Z,12.90
2023-05-19T18:16:27.059Z,12.90
2023-05-19T18:21:32.746Z,12.90
2023-05-19T18:26:39.674Z,12.80
2023-05-19T18:31:45.116Z,12.70
2023-05-19T18:36:50.570Z,12.60
2023-05-19T18:41:55.925Z,12.50
2023-05-19T18:47:01.816Z,12.60
2023-05-19T18:52:09.929Z,12.50
2023-05-19T18:57:15.599Z,12.50
2023-05-19T19:02:20.957Z,12.50
2023-05-19T19:07:28.008Z,12.50
2023-05-19T19:12:33.453Z,12.50
2023-05-19T19:17:40.822Z,12.50
2023-05-19T19:22:46.238Z,12.40
2023-05-19T19:27:52.752Z,12.40
2023-05-19T19:32:59.777Z,12.40
2023-05-19T19:38:07.471Z,12.30
2023-05-19T19:43:12.942Z,12.30
2023-05-19T19:48:18.387Z,12.30
2023-05-19T19:53:24.143Z,12.30
2023-05-19T19:58:30.149Z,12.30
2023-05-19T20:03:36.662Z,12.30
2023-05-19T20:08:42.495Z,12.20
2023-05-19T20:13:47.797Z,12.20
2023-05-19T20:18:53.093Z,12.20
2023-05-19T20:23:58.657Z,12.20
2023-05-19T20:29:04.017Z,12.20
2023-05-19T20:34:10.784Z,12.20
2023-05-19T20:39:16.032Z,12.20
2023-05-19T20:44:22.132Z,12.10
2023-05-19T20:49:27.300Z,12.10
2023-05-19T20:54:32.646Z,12.10
2023-05-19T20:59:37.748Z,12.00
2023-05-19T21:04:42.854Z,12.00
2023-05-19T21:09:50.341Z,12.00
2023-05-19T21:14:55.577Z,12.10
2023-05-19T21:20:02.603Z,12.00
2023-05-19T21:25:08.293Z,12.00
2023-05-19T21:30:14.908Z,12.00
2023-05-19T21:35:20.146Z,12.00
2023-05-19T21:40:25.324Z,12.00
2023-05-19T21:45:30.587Z,11.90
2023-05-19T21:50:39.343Z,11.90
2023-05-19T21:55:45.403Z,11.90
2023-05-19T22:00:57.734Z,11.90
2023-05-19T22:06:02.956Z,11.90
2023-05-19T22:11:09.224Z,11.90
2023-05-19T22:16:14.558Z,11.90
2023-05-19T22:21:20.563Z,11.90
2023-05-19T22:26:26.106Z,11.90
2023-05-19T22:31:31.299Z,11.90
2023-05-19T22:36:36.378Z,11.90
2023-05-19T22:41:42.289Z,11.90
2023-05-19T22:46:47.497Z,11.90
2023-05-19T22:51:52.615Z,11.90
2023-05-19T22:56:58.061Z,11.90
2023-05-19T23:02:03.339Z,11.90
2023-05-19T23:07:08.623Z,11.80
2023-05-19T23:12:14.280Z,11.80
2023-05-19T23:17:19.649Z,11.80
2023-05-19T23:22:25.764Z,11.80
2023-05-19T23:27:30.903Z,11.80
2023-05-19T23:32:36.252Z,11.80
2023-05-19T23:37:41.595Z,11.80
2023-05-19T23:42:46.801Z,11.80
2023-05-19T23:47:52.060Z,11.80
2023-05-19T23:52:57.317Z,11.80
2023-05-19T23:58:02.572Z,11.80
